This is the latest recevied weather packets stored in our database for station/object N4WFF. If no packets are shown the sender has not sent any weather packets the latest 10 day(s).
| Time | Temp. | Humidity | Pressure | Rain* | Wind** | Luminosity | Snow |
|---|---|---|---|---|---|---|---|
| 1778020257 | 26.11° C | 59% | 1013.5 hPa | 0 mm | - | 229 W/m² | - |
| 1778019956 | 25.56° C | 60% | 1013.5 hPa | 0 mm | - | 182 W/m² | - |
| 1778019655 | 26.11° C | 60% | 1013.4 hPa | 0 mm | - | 116 W/m² | - |
| 1778019355 | 26.11° C | 59% | 1013.5 hPa | 0 mm | - | 194 W/m² | - |
| 1778019056 | 26.67° C | 56% | 1013.3 hPa | 0 mm | - | 178 W/m² | - |
| 1778018755 | 26.67° C | 57% | 1013.4 hPa | 0 mm | - | 350 W/m² | - |
| 1778018456 | 26.11° C | 59% | 1013.4 hPa | 0 mm | - | 352 W/m² | - |
| 1778018156 | 26.67° C | 58% | 1013.5 hPa | 0 mm | - | 148 W/m² | - |
| 1778017857 | 26.67° C | 57% | 1013.4 hPa | 0 mm | - | 400 W/m² | - |
| 1778017556 | 26.67° C | 57% | 1013.3 hPa | 0 mm | - | 453 W/m² | - |
| 1778017256 | 26.67° C | 57% | 1013.4 hPa | 0 mm | - | 212 W/m² | - |
| 1778016955 | 26.67° C | 57% | 1013.4 hPa | 0 mm | - | 407 W/m² | - |
| 1778016656 | 27.22° C | 57% | 1013.4 hPa | 0 mm | - | 210 W/m² | - |
| 1778016356 | 27.22° C | 56% | 1013.5 hPa | 0 mm | - | 619 W/m² | - |
| 1778016055 | 26.67° C | 58% | 1013.4 hPa | 0 mm | - | 614 W/m² | - |
| 1778015756 | 26.67° C | 57% | 1013.5 hPa | 0 mm | - | 275 W/m² | - |
| 1778015455 | 26.67° C | 59% | 1013.5 hPa | 0 mm | - | 223 W/m² | - |
| 1778015155 | 27.22° C | 57% | 1013.4 hPa | 0 mm | - | 216 W/m² | - |
| 1778014857 | 27.22° C | 55% | 1013.5 hPa | 0 mm | - | 390 W/m² | - |
| 1778014557 | 27.22° C | 56% | 1013.4 hPa | 0 mm | - | 526 W/m² | - |
| 1778014256 | 26.67° C | 56% | 1013.4 hPa | 0 mm | - | 783 W/m² | - |
| 1778013956 | 26.67° C | 58% | 1013.5 hPa | 0 mm | - | 463 W/m² | - |
| 1778013656 | 26.67° C | 57% | 1013.5 hPa | 0 mm | - | 430 W/m² | - |
| 1778013355 | 26.67° C | 57% | 1013.8 hPa | 0 mm | - | 273 W/m² | - |
| 1778013056 | 26.67° C | 58% | 1013.9 hPa | 0 mm | - | 486 W/m² | - |
* Rain latest hour (hover to see other rain measurements)
** Current wind speed in m/s (hover to see current wind gust speed)